Time;durP1;ratioP1;P1;durP2;ratioP2;P2;SDS_P1;SDS_P2;PMS_P1;PMS_P2;Temp;Humidity;BMP_temperature;BMP_pressure;BME280_temperature;BME280_humidity;BME280_pressure;Samples;Min_cycle;Max_cycle;Signal;HPM_P1;HPM_P2
2023/11/01 00:02:05;;;;;;;4.93;1.70;;;;;;;13.91;61.25;96907.97;5082246;28;20179;-72
2023/11/01 00:04:31;;;;;;;2.20;1.30;;;;;;;14.00;61.13;96902.59;5073027;28;20253;-71
2023/11/01 00:06:58;;;;;;;5.27;1.80;;;;;;;14.09;60.74;96907.63;5071824;28;20190;-70
2023/11/01 00:09:24;;;;;;;3.03;1.70;;;;;;;14.08;60.75;96911.25;5079160;28;20238;-71
2023/11/01 00:11:50;;;;;;;9.63;1.67;;;;;;;14.08;60.78;96899.91;5052016;28;20422;-71
2023/11/01 00:14:15;;;;;;;2.90;1.40;;;;;;;14.10;60.63;96903.97;5070638;28;20456;-72
2023/11/01 00:16:41;;;;;;;2.10;1.37;;;;;;;14.11;59.99;96895.06;5051923;28;20204;-71
2023/11/01 00:19:07;;;;;;;4.47;1.77;;;;;;;14.15;60.37;96902.63;5072309;28;20674;-72
2023/11/01 00:21:33;;;;;;;3.03;1.70;;;;;;;14.16;60.31;96902.44;5070114;28;20440;-70
2023/11/01 00:23:58;;;;;;;1.70;1.60;;;;;;;14.17;60.22;96898.81;5035721;28;20257;-71
2023/11/01 00:26:24;;;;;;;3.93;1.63;;;;;;;14.18;60.20;96908.34;5072980;28;20174;-71
2023/11/01 00:28:49;;;;;;;3.13;1.50;;;;;;;14.22;59.99;96901.72;5073896;28;20573;-72
2023/11/01 00:31:15;;;;;;;3.47;1.60;;;;;;;14.26;59.94;96907.44;5052867;28;20194;-70
2023/11/01 00:33:40;;;;;;;3.40;1.47;;;;;;;14.23;59.68;96903.34;5078172;28;20237;-70
2023/11/01 00:36:06;;;;;;;3.40;1.47;;;;;;;14.29;59.68;96905.25;5069848;28;20181;-70
2023/11/01 00:38:35;;;;;;;4.50;1.90;;;;;;;14.29;59.65;96899.97;5074167;28;20196;-70
2023/11/01 00:41:02;;;;;;;2.33;1.63;;;;;;;14.28;59.71;96900.97;5069133;28;20619;-71
2023/11/01 00:43:29;;;;;;;1.73;1.60;;;;;;;14.27;59.80;96894.06;5058595;28;20417;-70
2023/11/01 00:45:54;;;;;;;4.63;1.77;;;;;;;14.23;59.76;96890.19;5053449;28;20428;-71
2023/11/01 00:48:20;;;;;;;3.37;1.87;;;;;;;14.29;59.77;96886.78;5052011;28;20421;-70
2023/11/01 00:50:45;;;;;;;1.70;1.37;;;;;;;14.32;59.64;96887.44;5051547;28;20609;-71
2023/11/01 00:53:11;;;;;;;7.10;1.73;;;;;;;14.33;59.70;96887.25;5078758;28;20189;-71
2023/11/01 00:55:36;;;;;;;5.17;1.53;;;;;;;14.32;59.83;96882.16;5071189;28;20841;-72
2023/11/01 00:58:02;;;;;;;6.23;1.53;;;;;;;14.29;59.97;96876.25;5069279;28;20846;-72
2023/11/01 01:00:27;;;;;;;3.20;1.57;;;;;;;14.27;59.86;96880.88;5069819;28;20573;-70
2023/11/01 01:02:53;;;;;;;5.20;1.80;;;;;;;14.25;60.06;96880.25;5073230;28;20178;-71
2023/11/01 01:05:18;;;;;;;2.17;1.40;;;;;;;14.22;60.49;96875.38;5069260;28;20167;-71
2023/11/01 01:07:44;;;;;;;7.13;1.20;;;;;;;14.26;60.08;96871.34;5073947;28;20725;-70
2023/11/01 01:10:09;;;;;;;3.73;1.60;;;;;;;14.26;60.07;96879.25;5076977;28;20233;-71
2023/11/01 01:12:34;;;;;;;1.30;1.00;;;;;;;14.30;60.08;96874.44;5075557;28;20181;-70
2023/11/01 01:15:01;;;;;;;6.10;1.30;;;;;;;14.27;60.27;96877.44;5068886;28;20289;-72
2023/11/01 01:17:26;;;;;;;3.77;1.50;;;;;;;14.32;59.95;96874.25;5069485;28;20577;-72
2023/11/01 01:19:52;;;;;;;4.03;1.30;;;;;;;14.33;60.10;96860.06;5077453;28;20489;-72
2023/11/01 01:22:17;;;;;;;7.60;2.00;;;;;;;14.38;59.76;96863.78;5077554;28;20261;-72
2023/11/01 01:24:43;;;;;;;2.57;1.17;;;;;;;14.38;60.04;96860.31;5073340;28;20236;-70
2023/11/01 01:27:08;;;;;;;5.00;1.00;;;;;;;14.38;60.06;96863.78;5078087;28;20189;-73
2023/11/01 01:29:33;;;;;;;3.63;1.20;;;;;;;14.42;59.99;96858.97;5070900;28;20671;-71
2023/11/01 01:31:59;;;;;;;5.40;1.50;;;;;;;14.42;59.96;96853.69;5071143;28;20265;-71
2023/11/01 01:34:24;;;;;;;4.57;1.50;;;;;;;14.42;59.93;96856.31;5069428;28;20218;-71
2023/11/01 01:36:50;;;;;;;5.90;1.33;;;;;;;14.28;59.89;96858.78;5077658;28;20225;-71
2023/11/01 01:39:15;;;;;;;2.80;1.47;;;;;;;14.15;60.39;96855.19;5047273;28;20179;-72
2023/11/01 01:41:40;;;;;;;4.20;1.47;;;;;;;14.08;60.47;96849.84;5077522;28;20698;-73
2023/11/01 01:44:06;;;;;;;3.03;1.37;;;;;;;14.07;60.71;96851.63;5069379;28;20273;-71
2023/11/01 01:46:32;;;;;;;3.80;1.33;;;;;;;14.12;60.55;96837.91;5069196;28;20181;-70
2023/11/01 01:48:58;;;;;;;3.33;1.47;;;;;;;14.15;60.27;96840.19;5050991;28;20205;-71
2023/11/01 01:51:25;;;;;;;6.03;1.63;;;;;;;14.10;60.37;96835.47;5051100;28;20209;-71
2023/11/01 01:53:51;;;;;;;2.30;1.20;;;;;;;14.06;60.52;96833.38;5067181;28;20460;-70
2023/11/01 01:56:18;;;;;;;4.83;1.40;;;;;;;14.02;60.65;96832.13;5050497;28;20929;-70
2023/11/01 01:58:44;;;;;;;2.10;1.23;;;;;;;13.90;60.87;96829.94;5069364;28;20408;-70
2023/11/01 02:01:10;;;;;;;2.93;1.40;;;;;;;13.91;60.82;96826.31;5050042;28;20454;-73
2023/11/01 02:03:36;;;;;;;3.13;1.40;;;;;;;13.88;61.06;96824.03;5055633;28;20537;-71
2023/11/01 02:06:03;;;;;;;4.27;1.73;;;;;;;13.93;60.89;96821.69;5070399;28;20618;-70
2023/11/01 02:08:28;;;;;;;3.40;1.33;;;;;;;13.91;61.11;96815.78;5072429;28;20170;-72
2023/11/01 02:10:54;;;;;;;4.50;1.53;;;;;;;13.91;60.88;96815.78;5067333;28;20436;-71
2023/11/01 02:13:19;;;;;;;2.50;1.50;;;;;;;13.91;60.82;96815.78;5076926;28;20527;-71
2023/11/01 02:15:45;;;;;;;5.90;1.50;;;;;;;13.87;61.20;96819.75;5067842;28;20174;-70
2023/11/01 02:18:11;;;;;;;1.87;1.30;;;;;;;13.87;61.18;96814.50;5073929;28;20193;-71
2023/11/01 02:20:39;;;;;;;6.57;1.47;;;;;;;13.94;60.89;96814.59;5068027;28;20198;-72
2023/11/01 02:23:08;;;;;;;4.73;1.53;;;;;;;13.96;60.80;96812.59;5068012;28;20424;-70
2023/11/01 02:25:33;;;;;;;5.83;1.47;;;;;;;13.93;60.95;96808.50;5056184;28;21042;-70
2023/11/01 02:27:59;;;;;;;4.27;1.40;;;;;;;13.91;61.07;96814.97;5067904;28;20424;-72
2023/11/01 02:30:24;;;;;;;6.80;1.40;;;;;;;13.96;61.09;96809.94;5071712;28;20218;-70
2023/11/01 02:32:50;;;;;;;4.67;1.43;;;;;;;13.98;61.05;96814.06;5072173;28;20658;-70
2023/11/01 02:35:17;;;;;;;3.07;1.53;;;;;;;13.93;61.03;96811.16;5071271;28;20198;-70
2023/11/01 02:37:42;;;;;;;4.83;1.37;;;;;;;13.89;61.03;96807.22;5057552;28;20416;-69
2023/11/01 02:40:09;;;;;;;10.60;2.10;;;;;;;13.90;61.29;96808.88;5083016;28;20542;-71
2023/11/01 02:42:45;;;;;;;6.20;1.70;;;;;;;13.88;61.20;96807.44;5079338;28;20246;-69
2023/11/01 02:45:11;;;;;;;6.23;1.70;;;;;;;13.87;61.12;96800.53;5072621;28;20413;-70
2023/11/01 02:47:37;;;;;;;2.83;1.30;;;;;;;13.91;61.14;96805.25;5063676;28;20419;-70
2023/11/01 02:50:09;;;;;;;4.10;1.60;;;;;;;13.94;61.03;96801.41;5076614;28;20440;-70
2023/11/01 02:52:35;;;;;;;3.93;1.30;;;;;;;13.94;61.00;96814.59;5071971;28;20500;-71
2023/11/01 02:55:01;;;;;;;2.93;1.23;;;;;;;13.88;60.98;96804.78;5085676;28;20543;-71
2023/11/01 02:57:26;;;;;;;7.47;1.57;;;;;;;13.89;60.97;96801.97;5079270;28;20559;-70
2023/11/01 02:59:52;;;;;;;5.60;1.10;;;;;;;13.86;60.99;96797.06;5073243;28;20436;-69
2023/11/01 03:02:17;;;;;;;1.83;1.40;;;;;;;13.85;61.07;96798.09;5080687;28;20815;-70
2023/11/01 03:04:43;;;;;;;4.00;1.50;;;;;;;13.85;61.12;96805.16;5071637;28;20206;-71
2023/11/01 03:07:08;;;;;;;3.87;1.30;;;;;;;13.88;61.03;96796.88;5084034;28;20201;-70
2023/11/01 03:09:34;;;;;;;9.03;1.57;;;;;;;13.92;61.00;96801.59;5080266;28;20843;-71
2023/11/01 03:11:59;;;;;;;3.30;1.60;;;;;;;13.90;60.91;96803.59;5070812;28;20190;-71
2023/11/01 03:14:25;;;;;;;2.23;1.30;;;;;;;13.90;60.97;96792.25;5078437;28;20276;-71
2023/11/01 03:16:50;;;;;;;4.60;1.30;;;;;;;13.92;61.00;96791.06;5075912;28;20663;-70
2023/11/01 03:19:16;;;;;;;6.10;1.30;;;;;;;13.97;60.78;96787.88;5082882;28;20617;-71
2023/11/01 03:21:41;;;;;;;3.57;1.20;;;;;;;13.95;60.73;96782.81;5053137;28;20207;-71
2023/11/01 03:24:07;;;;;;;3.10;1.20;;;;;;;13.93;60.95;96782.16;5054537;28;20171;-71
2023/11/01 03:26:33;;;;;;;2.87;1.43;;;;;;;13.91;61.15;96778.91;5077850;28;20183;-71
2023/11/01 03:28:59;;;;;;;5.63;1.50;;;;;;;13.88;61.10;96781.88;5075431;28;20186;-71
2023/11/01 03:31:25;;;;;;;4.10;1.40;;;;;;;13.90;61.06;96779.88;5077362;28;20436;-69
2023/11/01 03:33:51;;;;;;;8.20;1.67;;;;;;;13.94;60.95;96781.16;5073321;28;20202;-72
2023/11/01 03:36:16;;;;;;;2.67;1.43;;;;;;;13.94;61.13;96778.53;5077974;28;20416;-71
2023/11/01 03:38:42;;;;;;;2.53;1.57;;;;;;;13.98;60.54;96781.63;5078222;28;20647;-71
2023/11/01 03:41:08;;;;;;;6.30;1.50;;;;;;;14.00;60.49;96779.63;5071200;28;20683;-70
2023/11/01 03:43:33;;;;;;;4.47;1.53;;;;;;;13.91;60.50;96778.91;5074485;28;20500;-71
2023/11/01 03:45:59;;;;;;;3.10;1.40;;;;;;;13.89;60.25;96780.88;5077302;28;20273;-71
2023/11/01 03:48:25;;;;;;;5.30;1.30;;;;;;;13.91;60.12;96776.25;5067494;28;20595;-71
2023/11/01 03:50:51;;;;;;;4.63;1.50;;;;;;;13.91;60.20;96768.34;5074917;28;20573;-72
2023/11/01 03:53:16;;;;;;;2.63;1.30;;;;;;;13.86;60.25;96765.44;5070401;28;20428;-72
2023/11/01 03:55:42;;;;;;;4.90;1.10;;;;;;;13.87;59.99;96766.28;5071258;28;20258;-70
2023/11/01 03:58:07;;;;;;;9.40;2.27;;;;;;;13.88;60.05;96760.00;5078914;28;20277;-71
2023/11/01 04:00:33;;;;;;;3.20;1.20;;;;;;;13.86;59.97;96762.81;5052330;28;20697;-70
2023/11/01 04:02:58;;;;;;;3.17;1.20;;;;;;;13.81;59.72;96758.09;5066430;28;20588;-72
2023/11/01 04:05:24;;;;;;;4.30;1.30;;;;;;;13.81;59.72;96754.66;5069654;28;20178;-72
2023/11/01 04:07:49;;;;;;;5.33;1.40;;;;;;;13.82;59.91;96754.47;5070083;28;20243;-71
2023/11/01 04:10:15;;;;;;;3.83;1.20;;;;;;;13.79;59.76;96751.41;5069314;28;20233;-72
2023/11/01 04:12:40;;;;;;;3.83;1.23;;;;;;;13.78;59.86;96753.22;5070517;28;20174;-72
2023/11/01 04:15:10;;;;;;;3.10;1.20;;;;;;;13.72;59.88;96753.13;5068193;28;20798;-71
2023/11/01 04:17:37;;;;;;;6.03;1.33;;;;;;;13.72;59.88;96759.22;5069457;28;20174;-70
2023/11/01 04:20:08;;;;;;;3.57;1.33;;;;;;;13.70;59.89;96765.66;5075299;28;20555;-70
2023/11/01 04:22:37;;;;;;;3.70;1.30;;;;;;;13.70;60.01;96760.41;5061713;28;20412;-71
2023/11/01 04:25:06;;;;;;;5.53;1.37;;;;;;;13.68;59.73;96752.66;5075631;28;20974;-71
2023/11/01 04:27:41;;;;;;;6.23;1.37;;;;;;;13.68;59.84;96752.66;5069090;28;20818;-70
2023/11/01 04:30:08;;;;;;;1.43;1.10;;;;;;;13.67;59.65;96751.84;5065026;28;20444;-69
2023/11/01 04:32:36;;;;;;;2.33;1.50;;;;;;;13.62;59.77;96743.69;5070982;28;20467;-71
2023/11/01 04:35:03;;;;;;;5.77;1.60;;;;;;;13.60;60.10;96735.16;5069481;28;20553;-71
2023/11/01 04:37:29;;;;;;;2.40;1.33;;;;;;;13.57;59.77;96732.06;5068510;28;20504;-71
2023/11/01 04:39:56;;;;;;;2.30;1.20;;;;;;;13.54;59.71;96730.63;5072113;28;20440;-70
2023/11/01 04:42:22;;;;;;;4.10;1.40;;;;;;;13.48;59.91;96720.84;5058996;28;20417;-71
2023/11/01 04:44:48;;;;;;;2.47;1.33;;;;;;;13.52;59.92;96737.88;5076918;28;20439;-72
2023/11/01 04:47:13;;;;;;;5.80;1.10;;;;;;;13.48;59.85;96715.56;5067602;28;20289;-72
2023/11/01 04:49:52;;;;;;;2.27;1.30;;;;;;;13.53;59.65;96721.09;5070591;28;20217;-71
2023/11/01 04:52:17;;;;;;;3.00;1.40;;;;;;;13.49;59.86;96711.91;5066499;28;20178;-71
2023/11/01 04:54:43;;;;;;;5.30;1.83;;;;;;;13.48;59.48;96720.84;5069564;28;20513;-73
2023/11/01 04:57:08;;;;;;;3.30;1.50;;;;;;;13.47;59.89;96713.94;5073575;28;20178;-74
2023/11/01 04:59:34;;;;;;;2.63;1.13;;;;;;;13.48;59.42;96715.56;5045950;28;20269;-72
2023/11/01 05:01:59;;;;;;;3.60;1.60;;;;;;;13.41;59.57;96709.38;5064255;28;20201;-71
2023/11/01 05:04:25;;;;;;;3.43;1.30;;;;;;;13.48;59.51;96710.31;5069039;28;20186;-71
2023/11/01 05:06:51;;;;;;;5.13;1.37;;;;;;;13.44;59.66;96709.84;5068625;28;20593;-70
2023/11/01 05:09:17;;;;;;;5.13;1.60;;;;;;;13.46;59.50;96702.56;5068093;28;20231;-71
2023/11/01 05:11:43;;;;;;;5.13;1.50;;;;;;;13.46;59.37;96707.03;5061850;28;20289;-70
2023/11/01 05:14:09;;;;;;;3.47;2.27;;;;;;;13.45;59.42;96697.50;5076768;28;20491;-71
2023/11/01 05:16:34;;;;;;;5.27;2.10;;;;;;;13.48;59.55;96705.03;5067761;28;20708;-70
2023/11/01 05:19:00;;;;;;;7.50;1.40;;;;;;;13.48;59.27;96700.59;5067992;28;20210;-71
2023/11/01 05:21:25;;;;;;;3.30;1.20;;;;;;;13.48;59.40;96703.22;5066475;28;20289;-71
2023/11/01 05:23:50;;;;;;;3.80;1.37;;;;;;;13.46;59.41;96705.22;5067975;28;20178;-71
2023/11/01 05:26:16;;;;;;;2.40;1.17;;;;;;;13.50;59.19;96695.13;5074795;28;20205;-70
2023/11/01 05:28:42;;;;;;;2.37;1.13;;;;;;;13.48;59.30;96700.59;5068200;28;20195;-73
2023/11/01 05:31:08;;;;;;;7.83;1.17;;;;;;;13.46;59.43;96696.50;5067599;28;20210;-71
2023/11/01 05:33:34;;;;;;;2.60;1.50;;;;;;;13.52;59.22;96690.50;5067198;28;20587;-73
2023/11/01 05:36:06;;;;;;;5.60;1.90;;;;;;;13.51;58.80;96694.13;5068066;28;20508;-70
2023/11/01 05:38:32;;;;;;;6.60;1.50;;;;;;;13.50;59.27;96688.06;5059449;28;20187;-70
2023/11/01 05:40:57;;;;;;;3.50;1.87;;;;;;;13.48;59.22;96694.53;5066643;28;20481;-70
2023/11/01 05:43:23;;;;;;;3.70;1.80;;;;;;;13.48;58.93;96689.25;5071457;28;20508;-70
2023/11/01 05:45:48;;;;;;;3.30;2.47;;;;;;;13.48;59.09;96694.53;5067774;28;20541;-70
2023/11/01 05:48:14;;;;;;;4.53;1.57;;;;;;;13.45;59.01;96687.78;5067005;28;20179;-71
2023/11/01 05:50:40;;;;;;;5.27;1.70;;;;;;;13.50;58.75;96685.44;5056549;28;20781;-70
2023/11/01 05:53:09;;;;;;;4.37;1.00;;;;;;;13.50;58.79;96681.97;5067792;28;20179;-70
2023/11/01 05:55:36;;;;;;;3.90;1.40;;;;;;;13.51;58.93;96686.22;5066352;28;20479;-70
2023/11/01 05:58:02;;;;;;;2.50;1.20;;;;;;;13.45;59.03;96692.25;5064722;28;20421;-69
2023/11/01 06:00:27;;;;;;;1.57;1.00;;;;;;;13.45;58.81;96697.50;5065324;28;20490;-71
2023/11/01 06:02:53;;;;;;;2.70;1.57;;;;;;;13.36;59.03;96696.75;5064527;28;20722;-69
2023/11/01 06:05:21;;;;;;;5.57;1.80;;;;;;;13.39;59.12;96695.56;5066822;28;20531;-70
2023/11/01 06:07:48;;;;;;;3.70;1.70;;;;;;;13.34;59.18;96696.94;5072044;28;20891;-69
2023/11/01 06:10:13;;;;;;;1.80;1.40;;;;;;;13.37;59.09;96693.13;5068209;28;20448;-71
2023/11/01 06:12:38;;;;;;;5.57;1.43;;;;;;;13.30;58.81;96695.66;5067550;28;20432;-71
2023/11/01 06:15:04;;;;;;;4.80;1.33;;;;;;;13.24;58.94;96688.47;5049570;28;20222;-70
2023/11/01 06:17:30;;;;;;;3.10;1.27;;;;;;;13.30;59.13;96684.31;5067078;28;20659;-69
2023/11/01 06:19:55;;;;;;;4.17;2.60;;;;;;;13.25;58.87;96684.84;5068816;28;20437;-69
2023/11/01 06:22:21;;;;;;;6.37;2.80;;;;;;;13.28;58.91;96678.44;5064488;28;20186;-70
2023/11/01 06:24:46;;;;;;;4.97;1.93;;;;;;;13.25;59.23;96674.31;5064056;28;20767;-69
2023/11/01 06:27:12;;;;;;;2.10;1.50;;;;;;;13.28;59.08;96684.50;5067722;28;20186;-71
2023/11/01 06:29:39;;;;;;;2.90;1.30;;;;;;;13.27;59.27;96679.44;5067219;28;20193;-70
2023/11/01 06:32:05;;;;;;;4.20;1.77;;;;;;;13.27;59.19;96682.06;5071248;28;20424;-71
2023/11/01 06:34:30;;;;;;;6.57;1.93;;;;;;;13.23;59.19;96683.41;5048495;28;20530;-69
2023/11/01 06:36:56;;;;;;;3.07;2.20;;;;;;;13.25;59.29;96676.97;5021855;28;20181;-71
2023/11/01 06:39:22;;;;;;;2.77;1.70;;;;;;;13.29;59.29;96685.34;5072722;28;20213;-71
2023/11/01 06:41:47;;;;;;;3.63;1.80;;;;;;;13.29;59.34;96693.22;5051804;28;20211;-70
2023/11/01 06:44:13;;;;;;;4.50;1.53;;;;;;;13.34;58.87;96682.94;5067521;28;20921;-70
2023/11/01 06:46:38;;;;;;;10.07;2.00;;;;;;;13.32;58.95;96682.31;5068127;28;20723;-70
2023/11/01 06:49:04;;;;;;;3.13;2.10;;;;;;;13.37;58.99;96683.41;5067632;28;20182;-71
2023/11/01 06:51:29;;;;;;;2.70;2.03;;;;;;;13.42;59.16;96682.88;5068608;28;20217;-70
2023/11/01 06:53:55;;;;;;;3.03;1.73;;;;;;;13.50;58.55;96693.31;5074648;28;20198;-70
2023/11/01 06:56:20;;;;;;;3.53;1.90;;;;;;;13.52;58.79;96688.69;5071205;28;20597;-71
2023/11/01 06:58:45;;;;;;;7.40;2.20;;;;;;;13.54;58.87;96680.59;5067248;28;20269;-71
2023/11/01 07:01:11;;;;;;;2.20;2.00;;;;;;;13.65;59.48;96690.66;5064944;28;20240;-71
2023/11/01 07:03:36;;;;;;;4.13;2.10;;;;;;;13.76;59.38;96691.19;5068363;28;20189;-71
2023/11/01 07:06:02;;;;;;;5.30;2.40;;;;;;;13.81;59.04;96689.63;5079718;28;20182;-71
2023/11/01 07:08:28;;;;;;;3.90;2.10;;;;;;;13.91;59.06;96688.53;5068036;28;20308;-71
2023/11/01 07:10:53;;;;;;;4.00;1.90;;;;;;;13.97;58.78;96688.59;5074739;28;20476;-71
2023/11/01 07:13:19;;;;;;;2.23;1.70;;;;;;;14.04;58.27;96679.94;5075651;28;20194;-70
2023/11/01 07:15:44;;;;;;;3.60;1.90;;;;;;;14.09;58.32;96681.00;5079036;28;20201;-70
2023/11/01 07:18:10;;;;;;;2.90;1.63;;;;;;;14.12;57.88;96685.09;5084612;28;20181;-71
2023/11/01 07:20:36;;;;;;;4.17;1.97;;;;;;;14.10;58.24;96682.66;5081478;28;20194;-71
2023/11/01 07:23:01;;;;;;;3.10;2.17;;;;;;;14.20;58.07;96676.25;5071250;28;20206;-71
2023/11/01 07:25:27;;;;;;;9.10;4.13;;;;;;;14.22;57.71;96677.69;5072558;28;20448;-71
2023/11/01 07:27:52;;;;;;;5.43;3.47;;;;;;;14.25;57.64;96668.59;5076559;28;20560;-70
2023/11/01 07:30:17;;;;;;;2.33;1.73;;;;;;;14.25;57.36;96673.88;5070832;28;20214;-71
2023/11/01 07:32:44;;;;;;;2.10;1.90;;;;;;;14.32;57.61;96666.81;5071336;28;20663;-72
2023/11/01 07:35:10;;;;;;;1.77;1.50;;;;;;;14.38;57.62;96662.63;5069900;28;20206;-71
2023/11/01 07:37:35;;;;;;;2.27;1.10;;;;;;;14.47;57.30;96663.31;5075108;28;20420;-70
2023/11/01 07:40:01;;;;;;;8.93;1.53;;;;;;;14.55;57.13;96660.56;5078027;28;20679;-71
2023/11/01 07:42:26;;;;;;;1.67;1.30;;;;;;;14.61;56.87;96656.34;5075344;28;20182;-72
2023/11/01 07:44:52;;;;;;;2.33;1.10;;;;;;;14.71;56.47;96651.56;5070713;28;20175;-70
2023/11/01 07:47:17;;;;;;;4.80;1.10;;;;;;;14.82;56.41;96637.84;5073825;28;20209;-71
2023/11/01 07:49:43;;;;;;;2.63;1.10;;;;;;;15.01;56.25;96646.88;5070381;28;20174;-71
2023/11/01 07:52:09;;;;;;;3.30;1.20;;;;;;;15.17;54.71;96634.41;5068134;28;20190;-72
2023/11/01 07:54:34;;;;;;;3.20;1.53;;;;;;;15.43;54.83;96635.53;5069952;28;20209;-71
2023/11/01 07:57:00;;;;;;;6.63;1.37;;;;;;;15.55;53.87;96635.75;5067654;28;20186;-72
2023/11/01 07:59:25;;;;;;;2.03;1.30;;;;;;;15.76;53.20;96632.16;5070360;28;20554;-72
2023/11/01 08:01:51;;;;;;;3.93;1.30;;;;;;;16.08;53.58;96635.94;5077748;28;20198;-72
2023/11/01 08:04:17;;;;;;;2.00;1.20;;;;;;;16.37;53.02;96628.66;5070121;28;20273;-71
2023/11/01 08:06:42;;;;;;;2.63;1.30;;;;;;;16.76;51.68;96630.66;5069884;28;20178;-72
2023/11/01 08:09:08;;;;;;;2.70;1.53;;;;;;;16.94;50.72;96636.13;5069921;28;20440;-72
2023/11/01 08:11:33;;;;;;;3.70;1.30;;;;;;;16.94;50.15;96619.44;5069486;28;20281;-72
2023/11/01 08:13:59;;;;;;;4.20;1.63;;;;;;;17.11;50.01;96622.47;5070581;28;20293;-70
2023/11/01 08:16:24;;;;;;;2.13;0.93;;;;;;;17.30;49.47;96628.72;5051733;28;20273;-72
2023/11/01 08:18:50;;;;;;;2.63;1.20;;;;;;;17.47;49.12;96621.13;5080709;28;20186;-72
2023/11/01 08:21:15;;;;;;;2.90;1.57;;;;;;;17.78;48.93;96611.56;5074864;28;20198;-72
2023/11/01 08:23:40;;;;;;;6.73;5.50;;;;;;;18.11;47.74;96613.25;5029650;28;20173;-72
2023/11/01 08:26:06;;;;;;;3.00;1.13;;;;;;;18.32;46.72;96605.94;5006852;28;20188;-72
2023/11/01 08:28:31;;;;;;;13.13;9.20;;;;;;;18.54;47.07;96617.00;5074400;28;20182;-72
2023/11/01 08:30:57;;;;;;;6.83;5.80;;;;;;;18.88;46.05;96614.81;5069338;28;20687;-71
2023/11/01 08:33:22;;;;;;;3.43;1.60;;;;;;;19.15;45.96;96619.88;5067865;28;20208;-71
2023/11/01 08:35:48;;;;;;;1.47;0.97;;;;;;;19.37;44.86;96622.09;5066267;28;20187;-72
2023/11/01 08:38:13;;;;;;;6.90;1.83;;;;;;;19.56;44.34;96617.56;5075686;28;20256;-71
2023/11/01 08:40:38;;;;;;;3.27;1.97;;;;;;;19.91;44.28;96619.59;5071823;28;20281;-72
2023/11/01 08:43:05;;;;;;;2.23;1.20;;;;;;;19.94;41.95;96621.78;5074497;28;20261;-71
2023/11/01 08:45:31;;;;;;;1.67;0.80;;;;;;;19.78;42.59;96620.56;5069396;28;20261;-72
2023/11/01 08:47:56;;;;;;;3.83;1.90;;;;;;;20.04;42.31;96615.94;5075354;28;20971;-72
2023/11/01 08:50:22;;;;;;;2.87;1.37;;;;;;;20.29;42.31;96618.41;5065695;28;20206;-72
2023/11/01 08:52:47;;;;;;;3.13;1.20;;;;;;;20.41;41.33;96627.22;5051407;28;20174;-72
2023/11/01 08:55:14;;;;;;;2.07;1.20;;;;;;;20.42;41.12;96612.88;5074528;28;20678;-72
2023/11/01 08:57:40;;;;;;;1.47;0.93;;;;;;;20.47;41.52;96622.84;5068663;28;20177;-72
2023/11/01 09:00:06;;;;;;;3.33;0.83;;;;;;;20.77;40.59;96618.50;5061023;28;20858;-71
2023/11/01 09:02:32;;;;;;;4.30;1.10;;;;;;;20.74;39.45;96614.38;5075747;28;20428;-71
2023/11/01 09:04:57;;;;;;;1.10;0.77;;;;;;;20.53;39.32;96621.13;5066500;28;20429;-71
2023/11/01 09:07:23;;;;;;;2.50;0.83;;;;;;;20.58;40.28;96615.09;5074344;28;20200;-72
2023/11/01 09:09:49;;;;;;;2.43;1.00;;;;;;;20.72;39.43;96617.28;5068636;28;20686;-71
2023/11/01 09:12:18;;;;;;;2.03;1.10;;;;;;;20.71;39.04;96621.00;5073857;28;20200;-71
2023/11/01 09:14:45;;;;;;;2.53;1.00;;;;;;;20.87;39.28;96616.03;5074060;28;20511;-72
2023/11/01 09:17:11;;;;;;;1.50;0.90;;;;;;;20.88;39.27;96604.34;5068928;28;20516;-72
2023/11/01 09:19:36;;;;;;;2.63;1.30;;;;;;;20.78;39.48;96602.28;5072247;28;20510;-71
2023/11/01 09:22:02;;;;;;;2.13;1.27;;;;;;;20.67;39.38;96608.38;5069911;28;20532;-70
2023/11/01 09:24:27;;;;;;;2.33;1.77;;;;;;;20.90;39.21;96606.78;5071086;28;20175;-72
2023/11/01 09:26:52;;;;;;;2.80;1.20;;;;;;;20.93;38.86;96607.13;5071353;28;20617;-70
2023/11/01 09:29:18;;;;;;;3.60;1.10;;;;;;;20.63;38.90;96617.84;5069716;28;20368;-71
2023/11/01 09:31:45;;;;;;;2.87;1.10;;;;;;;21.03;37.86;96617.19;5067999;28;20222;-71
2023/11/01 09:34:10;;;;;;;2.10;1.00;;;;;;;21.04;37.46;96612.69;5069109;28;20191;-71
2023/11/01 09:36:35;;;;;;;3.10;0.90;;;;;;;20.84;37.50;96604.03;5075264;28;20451;-71
2023/11/01 09:39:03;;;;;;;1.20;0.93;;;;;;;20.88;37.86;96601.69;5073351;28;20690;-71
2023/11/01 09:41:33;;;;;;;3.30;1.10;;;;;;;20.78;37.62;96606.81;5068346;28;20198;-72
2023/11/01 09:44:01;;;;;;;5.67;3.20;;;;;;;20.87;38.18;96605.41;5059200;28;20416;-71
2023/11/01 09:46:28;;;;;;;5.80;1.03;;;;;;;21.05;37.64;96598.28;5069346;28;20509;-71
2023/11/01 09:48:54;;;;;;;1.80;1.00;;;;;;;21.28;37.20;96600.94;5057664;28;20412;-71
2023/11/01 09:51:21;;;;;;;3.70;1.17;;;;;;;21.85;36.42;96594.03;5065671;28;20455;-72
2023/11/01 09:53:47;;;;;;;2.33;1.13;;;;;;;22.30;35.92;96594.25;5067864;28;20463;-72
2023/11/01 09:56:12;;;;;;;1.93;1.40;;;;;;;22.78;35.46;96598.19;5074844;28;20417;-70
2023/11/01 09:58:41;;;;;;;2.90;0.93;;;;;;;22.95;35.02;96598.16;5068038;28;20179;-72
2023/11/01 10:01:06;;;;;;;5.63;2.70;;;;;;;22.98;35.30;96596.84;5066982;28;20908;-71
2023/11/01 10:03:32;;;;;;;2.97;1.20;;;;;;;23.09;35.04;96589.78;5071372;28;20635;-72
2023/11/01 10:05:58;;;;;;;3.13;1.20;;;;;;;22.95;35.17;96594.66;5068497;28;20426;-72
2023/11/01 10:08:23;;;;;;;3.37;1.00;;;;;;;22.91;34.32;96585.53;5062320;28;20575;-72
2023/11/01 10:10:49;;;;;;;3.77;1.10;;;;;;;22.85;35.23;96588.13;5064943;28;20201;-72
2023/11/01 10:13:15;;;;;;;3.03;1.00;;;;;;;23.20;35.35;96574.69;5068493;28;20204;-72
2023/11/01 10:15:40;;;;;;;5.53;1.00;;;;;;;22.99;34.66;96572.56;5067397;28;20927;-73
2023/11/01 10:18:06;;;;;;;6.30;1.47;;;;;;;23.08;34.83;96559.56;5060675;28;20186;-71
2023/11/01 10:20:31;;;;;;;3.20;1.30;;;;;;;23.22;34.86;96562.72;5043811;28;20205;-70
2023/11/01 10:22:57;;;;;;;2.03;1.20;;;;;;;23.30;34.56;96561.47;5069300;28;20179;-71
2023/11/01 10:25:23;;;;;;;4.50;1.00;;;;;;;23.23;33.94;96563.53;5075003;28;20170;-70
2023/11/01 10:27:50;;;;;;;3.30;1.10;;;;;;;23.12;34.42;96559.91;5067636;28;20182;-69
2023/11/01 10:30:15;;;;;;;1.80;1.17;;;;;;;23.53;33.85;96560.38;5062798;28;20206;-71
2023/11/01 10:32:54;;;;;;;1.50;1.10;;;;;;;23.63;33.01;96551.66;5067692;28;20421;-70
2023/11/01 10:35:19;;;;;;;12.90;1.60;;;;;;;23.49;32.98;96553.13;5067671;28;20226;-69
2023/11/01 10:37:45;;;;;;;2.30;0.90;;;;;;;23.53;33.52;96557.69;5063151;28;20600;-69
2023/11/01 10:40:11;;;;;;;2.07;0.90;;;;;;;23.49;33.70;96537.91;5060456;28;20240;-69
2023/11/01 10:42:40;;;;;;;2.20;0.90;;;;;;;23.39;32.74;96540.44;5047461;28;20178;-68
2023/11/01 10:45:06;;;;;;;2.80;1.57;;;;;;;23.33;32.67;96536.91;5049162;28;20849;-70
2023/11/01 10:47:32;;;;;;;3.73;1.00;;;;;;;23.35;32.90;96528.66;5067254;28;20448;-71
2023/11/01 10:49:57;;;;;;;1.07;0.70;;;;;;;23.48;32.88;96528.25;5068454;28;20174;-71
2023/11/01 10:52:25;;;;;;;6.63;0.77;;;;;;;23.51;32.04;96521.59;5073401;28;20182;-73
2023/11/01 10:54:50;;;;;;;1.60;1.07;;;;;;;23.44;33.05;96519.13;5083053;28;20209;-70
2023/11/01 10:57:16;;;;;;;4.00;1.00;;;;;;;23.34;33.08;96516.34;5053370;28;20743;-71
2023/11/01 10:59:55;;;;;;;1.30;0.93;;;;;;;23.13;33.14;96508.88;5078625;28;20227;-72
2023/11/01 11:02:37;;;;;;;3.00;0.93;;;;;;;22.82;33.33;96507.69;5070388;28;20261;-71
2023/11/01 11:05:05;;;;;;;1.73;0.90;;;;;;;22.74;33.71;96502.81;5070954;28;20434;-71
2023/11/01 11:07:47;;;;;;;2.00;0.80;;;;;;;22.65;33.30;96497.06;5060358;28;20425;-70
2023/11/01 11:10:32;;;;;;;2.03;0.90;;;;;;;22.82;33.61;96499.69;5064919;28;21010;-70
2023/11/01 11:13:09;;;;;;;2.03;1.10;;;;;;;23.00;33.71;96496.69;5072434;28;20436;-70
2023/11/01 11:16:12;;;;;;;4.93;1.00;;;;;;;23.32;34.03;96489.84;5076616;28;20460;-71
2023/11/01 11:18:44;;;;;;;1.83;0.70;;;;;;;23.34;33.17;96485.06;5067828;28;20474;-70
2023/11/01 11:21:44;;;;;;;2.00;1.00;;;;;;;23.47;33.52;96479.31;5076491;28;20945;-70
2023/11/01 11:24:31;;;;;;;1.50;0.90;;;;;;;23.86;32.70;96474.81;5070714;28;21203;-71
2023/11/01 11:26:57;;;;;;;2.73;0.90;;;;;;;24.16;31.96;96465.44;5073106;28;20427;-70
2023/11/01 11:29:45;;;;;;;1.27;0.70;;;;;;;23.64;32.64;96470.38;5065385;28;20444;-71
2023/11/01 11:32:17;;;;;;;3.67;1.20;;;;;;;23.57;32.27;96459.06;5070503;28;20296;-69